sensor_id;sensor_type;location;lat;lon;timestamp;pressure;altitude;pressure_sealevel;temperature;humidity
76753;BME280;65687;51.308;16.916;2023-06-22T00:04:35;99883.54;;;20.25;77.63
76753;BME280;65687;51.308;16.916;2023-06-22T00:09:37;99890.81;;;20.22;77.75
76753;BME280;65687;51.308;16.916;2023-06-22T00:14:38;99894.60;;;20.16;77.96
76753;BME280;65687;51.308;16.916;2023-06-22T00:19:40;99898.52;;;20.09;78.31
76753;BME280;65687;51.308;16.916;2023-06-22T00:24:41;99896.34;;;20.05;78.59
76753;BME280;65687;51.308;16.916;2023-06-22T00:29:43;99901.65;;;19.98;78.75
76753;BME280;65687;51.308;16.916;2023-06-22T00:34:44;99909.19;;;19.92;78.99
76753;BME280;65687;51.308;16.916;2023-06-22T00:39:46;99913.58;;;19.90;79.24
76753;BME280;65687;51.308;16.916;2023-06-22T00:44:47;99914.55;;;19.88;79.47
76753;BME280;65687;51.308;16.916;2023-06-22T00:49:49;99921.97;;;19.84;79.61
76753;BME280;65687;51.308;16.916;2023-06-22T00:54:53;99936.02;;;19.84;79.77
76753;BME280;65687;51.308;16.916;2023-06-22T00:59:56;99941.38;;;19.85;79.94
76753;BME280;65687;51.308;16.916;2023-06-22T01:04:57;99938.23;;;19.83;80.09
76753;BME280;65687;51.308;16.916;2023-06-22T01:10:14;99939.97;;;19.78;80.25
76753;BME280;65687;51.308;16.916;2023-06-22T01:15:30;99940.25;;;19.76;80.30
76753;BME280;65687;51.308;16.916;2023-06-22T01:20:34;99948.00;;;19.77;80.30
76753;BME280;65687;51.308;16.916;2023-06-22T01:31:29;99946.05;;;19.75;80.46
76753;BME280;65687;51.308;16.916;2023-06-22T01:36:33;99948.05;;;19.73;80.45
76753;BME280;65687;51.308;16.916;2023-06-22T01:41:37;99946.70;;;19.69;80.62
76753;BME280;65687;51.308;16.916;2023-06-22T01:46:39;99952.10;;;19.60;80.76
76753;BME280;65687;51.308;16.916;2023-06-22T01:51:41;99958.25;;;19.53;80.76
76753;BME280;65687;51.308;16.916;2023-06-22T01:56:43;99955.45;;;19.47;80.84
76753;BME280;65687;51.308;16.916;2023-06-22T02:01:58;99958.39;;;19.42;81.05
76753;BME280;65687;51.308;16.916;2023-06-22T02:07:05;99955.81;;;19.32;81.14
76753;BME280;65687;51.308;16.916;2023-06-22T02:12:11;99960.78;;;19.26;81.48
76753;BME280;65687;51.308;16.916;2023-06-22T02:17:14;99963.66;;;19.20;81.63
76753;BME280;65687;51.308;16.916;2023-06-22T02:22:15;99953.88;;;19.14;82.03
76753;BME280;65687;51.308;16.916;2023-06-22T02:27:17;99950.95;;;19.08;82.25
76753;BME280;65687;51.308;16.916;2023-06-22T02:32:18;99954.80;;;19.05;82.58
76753;BME280;65687;51.308;16.916;2023-06-22T02:37:20;99958.45;;;19.02;82.78
76753;BME280;65687;51.308;16.916;2023-06-22T02:42:21;99960.21;;;18.99;82.99
76753;BME280;65687;51.308;16.916;2023-06-22T02:47:23;99965.65;;;18.97;83.01
76753;BME280;65687;51.308;16.916;2023-06-22T02:52:24;99962.84;;;18.95;83.00
76753;BME280;65687;51.308;16.916;2023-06-22T02:57:26;99964.27;;;18.93;83.08
76753;BME280;65687;51.308;16.916;2023-06-22T03:02:27;99971.81;;;18.93;83.09
76753;BME280;65687;51.308;16.916;2023-06-22T03:07:29;99963.05;;;18.92;83.28
76753;BME280;65687;51.308;16.916;2023-06-22T03:12:31;99969.00;;;18.91;83.46
76753;BME280;65687;51.308;16.916;2023-06-22T03:17:34;99974.75;;;18.93;83.32
76753;BME280;65687;51.308;16.916;2023-06-22T03:22:37;99988.98;;;18.94;83.27
76753;BME280;65687;51.308;16.916;2023-06-22T03:27:42;99988.93;;;18.93;83.19
76753;BME280;65687;51.308;16.916;2023-06-22T03:32:45;99989.10;;;18.92;83.30
76753;BME280;65687;51.308;16.916;2023-06-22T03:37:47;99993.13;;;18.91;83.53
76753;BME280;65687;51.308;16.916;2023-06-22T03:42:49;99990.20;;;18.89;83.66
76753;BME280;65687;51.308;16.916;2023-06-22T03:47:50;99993.23;;;18.88;83.73
76753;BME280;65687;51.308;16.916;2023-06-22T03:52:52;99995.55;;;18.91;83.68
76753;BME280;65687;51.308;16.916;2023-06-22T03:57:54;100003.61;;;18.96;83.62
76753;BME280;65687;51.308;16.916;2023-06-22T04:02:58;100008.95;;;18.97;83.61
76753;BME280;65687;51.308;16.916;2023-06-22T04:07:59;100015.94;;;18.96;83.71
76753;BME280;65687;51.308;16.916;2023-06-22T04:13:01;100017.20;;;18.98;83.92
76753;BME280;65687;51.308;16.916;2023-06-22T04:18:05;100030.05;;;18.99;83.94
76753;BME280;65687;51.308;16.916;2023-06-22T04:23:06;100031.62;;;18.99;84.11
76753;BME280;65687;51.308;16.916;2023-06-22T04:28:08;100031.79;;;19.04;84.27
76753;BME280;65687;51.308;16.916;2023-06-22T04:33:14;100035.05;;;19.09;84.24
76753;BME280;65687;51.308;16.916;2023-06-22T04:38:16;100038.66;;;19.15;84.19
76753;BME280;65687;51.308;16.916;2023-06-22T04:43:18;100041.27;;;19.21;83.98
76753;BME280;65687;51.308;16.916;2023-06-22T04:48:19;100042.85;;;19.27;84.07
76753;BME280;65687;51.308;16.916;2023-06-22T04:53:21;100048.42;;;19.35;84.06
76753;BME280;65687;51.308;16.916;2023-06-22T04:58:22;100046.29;;;19.43;84.21
76753;BME280;65687;51.308;16.916;2023-06-22T05:03:25;100052.79;;;19.52;84.27
76753;BME280;65687;51.308;16.916;2023-06-22T05:08:27;100053.39;;;19.60;84.07
76753;BME280;65687;51.308;16.916;2023-06-22T05:13:29;100051.79;;;19.70;84.08
76753;BME280;65687;51.308;16.916;2023-06-22T05:18:31;100045.02;;;19.77;83.85
76753;BME280;65687;51.308;16.916;2023-06-22T05:23:33;100044.44;;;19.86;83.84
76753;BME280;65687;51.308;16.916;2023-06-22T05:28:34;100038.39;;;19.95;83.73
76753;BME280;65687;51.308;16.916;2023-06-22T05:33:36;100035.66;;;20.02;83.43
76753;BME280;65687;51.308;16.916;2023-06-22T05:38:38;100041.42;;;20.11;83.37
76753;BME280;65687;51.308;16.916;2023-06-22T05:43:40;100040.00;;;20.21;83.31
76753;BME280;65687;51.308;16.916;2023-06-22T05:48:42;100039.89;;;20.28;82.99
76753;BME280;65687;51.308;16.916;2023-06-22T05:53:43;100042.65;;;20.40;81.65
76753;BME280;65687;51.308;16.916;2023-06-22T05:58:47;100047.62;;;20.52;80.54
76753;BME280;65687;51.308;16.916;2023-06-22T06:03:48;100050.70;;;20.64;80.22
76753;BME280;65687;51.308;16.916;2023-06-22T06:08:50;100061.19;;;20.77;78.56
76753;BME280;65687;51.308;16.916;2023-06-22T06:13:52;100062.02;;;20.88;77.45
76753;BME280;65687;51.308;16.916;2023-06-22T06:18:53;100061.50;;;21.01;76.62
76753;BME280;65687;51.308;16.916;2023-06-22T06:23:57;100071.77;;;21.12;76.69
76753;BME280;65687;51.308;16.916;2023-06-22T06:28:59;100079.08;;;21.21;76.66
76753;BME280;65687;51.308;16.916;2023-06-22T06:34:01;100080.80;;;21.28;75.28
76753;BME280;65687;51.308;16.916;2023-06-22T06:39:03;100082.13;;;21.40;74.48
76753;BME280;65687;51.308;16.916;2023-06-22T06:44:05;100081.88;;;21.50;74.33
76753;BME280;65687;51.308;16.916;2023-06-22T06:49:06;100089.06;;;21.63;73.64
76753;BME280;65687;51.308;16.916;2023-06-22T06:54:08;100092.39;;;21.72;73.04
76753;BME280;65687;51.308;16.916;2023-06-22T06:59:10;100103.89;;;21.86;72.77
76753;BME280;65687;51.308;16.916;2023-06-22T07:04:11;100110.63;;;21.94;72.57
76753;BME280;65687;51.308;16.916;2023-06-22T07:09:13;100116.20;;;22.03;72.33
76753;BME280;65687;51.308;16.916;2023-06-22T07:14:14;100120.50;;;22.10;72.35
76753;BME280;65687;51.308;16.916;2023-06-22T07:19:15;100124.19;;;22.13;72.83
76753;BME280;65687;51.308;16.916;2023-06-22T07:24:17;100117.06;;;22.10;72.55
76753;BME280;65687;51.308;16.916;2023-06-22T07:29:21;100116.63;;;22.14;72.57
76753;BME280;65687;51.308;16.916;2023-06-22T07:34:22;100116.77;;;22.28;72.81
76753;BME280;65687;51.308;16.916;2023-06-22T07:39:24;100119.21;;;22.45;72.89
76753;BME280;65687;51.308;16.916;2023-06-22T07:44:27;100116.43;;;22.67;71.63
76753;BME280;65687;51.308;16.916;2023-06-22T07:49:29;100118.08;;;22.80;71.64
76753;BME280;65687;51.308;16.916;2023-06-22T07:54:30;100102.00;;;22.85;71.34
76753;BME280;65687;51.308;16.916;2023-06-22T07:59:32;100092.06;;;23.06;69.94
76753;BME280;65687;51.308;16.916;2023-06-22T08:04:34;100094.98;;;23.34;69.44
76753;BME280;65687;51.308;16.916;2023-06-22T08:09:36;100103.94;;;23.52;68.39
76753;BME280;65687;51.308;16.916;2023-06-22T08:14:38;100107.11;;;23.37;68.84
76753;BME280;65687;51.308;16.916;2023-06-22T08:19:40;100095.20;;;23.36;69.44
76753;BME280;65687;51.308;16.916;2023-06-22T08:24:42;100087.82;;;23.47;69.08
76753;BME280;65687;51.308;16.916;2023-06-22T08:29:44;100090.51;;;23.73;69.27
76753;BME280;65687;51.308;16.916;2023-06-22T08:34:46;100073.80;;;23.86;66.95
76753;BME280;65687;51.308;16.916;2023-06-22T08:39:48;100060.13;;;23.83;67.09
76753;BME280;65687;51.308;16.916;2023-06-22T08:44:50;100059.78;;;23.94;66.77
76753;BME280;65687;51.308;16.916;2023-06-22T08:49:51;100044.57;;;24.17;66.07
76753;BME280;65687;51.308;16.916;2023-06-22T08:54:53;100042.73;;;24.61;64.52
76753;BME280;65687;51.308;16.916;2023-06-22T08:59:54;100046.48;;;24.85;62.45
76753;BME280;65687;51.308;16.916;2023-06-22T09:04:59;100056.48;;;25.17;60.09
76753;BME280;65687;51.308;16.916;2023-06-22T09:10:01;100064.00;;;25.45;59.87
76753;BME280;65687;51.308;16.916;2023-06-22T09:15:03;100069.52;;;25.62;59.26
76753;BME280;65687;51.308;16.916;2023-06-22T09:20:06;100068.44;;;25.76;58.82
76753;BME280;65687;51.308;16.916;2023-06-22T09:25:09;100073.11;;;25.77;58.46
76753;BME280;65687;51.308;16.916;2023-06-22T09:30:11;100068.22;;;25.97;58.64
76753;BME280;65687;51.308;16.916;2023-06-22T09:35:13;100059.02;;;26.21;57.83
76753;BME280;65687;51.308;16.916;2023-06-22T09:40:16;100056.73;;;26.44;56.85
76753;BME280;65687;51.308;16.916;2023-06-22T09:45:18;100057.80;;;26.53;56.30
76753;BME280;65687;51.308;16.916;2023-06-22T09:50:19;100059.02;;;26.51;54.87
76753;BME280;65687;51.308;16.916;2023-06-22T09:55:21;100059.02;;;26.53;55.45
76753;BME280;65687;51.308;16.916;2023-06-22T10:00:23;100054.30;;;26.41;53.38
76753;BME280;65687;51.308;16.916;2023-06-22T10:05:25;100050.85;;;26.46;53.89
76753;BME280;65687;51.308;16.916;2023-06-22T10:10:26;100048.49;;;26.63;53.45
76753;BME280;65687;51.308;16.916;2023-06-22T10:15:28;100042.43;;;26.66;53.03
76753;BME280;65687;51.308;16.916;2023-06-22T10:20:29;100038.48;;;26.76;54.29
76753;BME280;65687;51.308;16.916;2023-06-22T10:25:31;100034.48;;;26.78;53.45
76753;BME280;65687;51.308;16.916;2023-06-22T10:30:32;100022.86;;;26.65;52.41
76753;BME280;65687;51.308;16.916;2023-06-22T10:35:35;100013.79;;;26.48;53.59
76753;BME280;65687;51.308;16.916;2023-06-22T10:40:39;100014.66;;;26.52;54.25
76753;BME280;65687;51.308;16.916;2023-06-22T10:45:41;100012.08;;;26.55;51.41
76753;BME280;65687;51.308;16.916;2023-06-22T10:50:42;100011.05;;;26.61;50.89
76753;BME280;65687;51.308;16.916;2023-06-22T10:55:44;100003.25;;;26.59;50.08
76753;BME280;65687;51.308;16.916;2023-06-22T11:00:46;100001.70;;;26.63;50.39
76753;BME280;65687;51.308;16.916;2023-06-22T11:05:47;99992.33;;;26.53;50.68
76753;BME280;65687;51.308;16.916;2023-06-22T11:10:51;99989.58;;;26.61;49.42
76753;BME280;65687;51.308;16.916;2023-06-22T11:15:53;99989.92;;;26.59;49.12
76753;BME280;65687;51.308;16.916;2023-06-22T11:20:54;99996.63;;;26.46;50.12
76753;BME280;65687;51.308;16.916;2023-06-22T11:25:56;99987.59;;;26.38;50.52
76753;BME280;65687;51.308;16.916;2023-06-22T11:30:58;99986.73;;;26.39;50.14
76753;BME280;65687;51.308;16.916;2023-06-22T11:36:00;99985.50;;;26.32;49.26
76753;BME280;65687;51.308;16.916;2023-06-22T11:41:02;99979.44;;;26.29;50.01
76753;BME280;65687;51.308;16.916;2023-06-22T11:46:04;99976.01;;;26.39;50.46
76753;BME280;65687;51.308;16.916;2023-06-22T11:51:06;99976.90;;;26.52;52.26
76753;BME280;65687;51.308;16.916;2023-06-22T11:56:09;99971.55;;;26.64;50.32
76753;BME280;65687;51.308;16.916;2023-06-22T12:01:11;99971.73;;;26.65;51.03
76753;BME280;65687;51.308;16.916;2023-06-22T12:06:16;99969.06;;;26.39;51.73
76753;BME280;65687;51.308;16.916;2023-06-22T12:11:17;99962.91;;;26.20;50.42
76753;BME280;65687;51.308;16.916;2023-06-22T12:16:19;99956.14;;;26.18;50.31
76753;BME280;65687;51.308;16.916;2023-06-22T12:21:22;99940.59;;;26.22;49.84
76753;BME280;65687;51.308;16.916;2023-06-22T12:26:24;99939.79;;;26.33;50.46
76753;BME280;65687;51.308;16.916;2023-06-22T12:31:27;99942.39;;;26.39;48.48
76753;BME280;65687;51.308;16.916;2023-06-22T12:36:28;99935.30;;;26.45;50.06
76753;BME280;65687;51.308;16.916;2023-06-22T12:41:30;99930.65;;;26.55;50.24
76753;BME280;65687;51.308;16.916;2023-06-22T12:46:32;99920.96;;;26.60;48.62
76753;BME280;65687;51.308;16.916;2023-06-22T12:51:43;99909.36;;;26.64;46.31
76753;BME280;65687;51.308;16.916;2023-06-22T12:56:45;99906.08;;;26.69;45.41
76753;BME280;65687;51.308;16.916;2023-06-22T13:01:46;99907.64;;;26.76;45.49
76753;BME280;65687;51.308;16.916;2023-06-22T13:06:48;99905.04;;;26.78;45.54
76753;BME280;65687;51.308;16.916;2023-06-22T13:11:50;99898.27;;;26.75;46.70
76753;BME280;65687;51.308;16.916;2023-06-22T13:16:53;99906.94;;;26.79;47.75
76753;BME280;65687;51.308;16.916;2023-06-22T13:21:55;99899.33;;;26.77;47.86
76753;BME280;65687;51.308;16.916;2023-06-22T13:26:57;99896.88;;;26.79;47.79
76753;BME280;65687;51.308;16.916;2023-06-22T13:31:58;99891.86;;;26.83;47.26
76753;BME280;65687;51.308;16.916;2023-06-22T13:37:01;99886.66;;;26.83;47.95
76753;BME280;65687;51.308;16.916;2023-06-22T13:42:03;99880.26;;;26.85;46.31
76753;BME280;65687;51.308;16.916;2023-06-22T13:47:06;99877.16;;;26.91;47.45
76753;BME280;65687;51.308;16.916;2023-06-22T13:52:07;99874.39;;;26.91;49.14
76753;BME280;65687;51.308;16.916;2023-06-22T13:57:11;99877.66;;;26.79;48.14
76753;BME280;65687;51.308;16.916;2023-06-22T14:02:13;99877.48;;;26.84;47.76
76753;BME280;65687;51.308;16.916;2023-06-22T14:07:15;99874.17;;;26.87;48.09
76753;BME280;65687;51.308;16.916;2023-06-22T14:12:17;99871.41;;;26.83;48.34
76753;BME280;65687;51.308;16.916;2023-06-22T14:17:21;99871.23;;;26.81;48.34
76753;BME280;65687;51.308;16.916;2023-06-22T14:22:26;99859.96;;;26.80;48.42
76753;BME280;65687;51.308;16.916;2023-06-22T14:27:30;99847.33;;;26.79;49.12
76753;BME280;65687;51.308;16.916;2023-06-22T14:32:32;99844.56;;;26.76;49.17
76753;BME280;65687;51.308;16.916;2023-06-22T14:37:33;99842.82;;;26.80;48.95
76753;BME280;65687;51.308;16.916;2023-06-22T14:42:35;99840.39;;;26.88;48.07
76753;BME280;65687;51.308;16.916;2023-06-22T14:47:36;99835.39;;;26.92;47.26
76753;BME280;65687;51.308;16.916;2023-06-22T14:52:38;99831.40;;;26.91;46.78
76753;BME280;65687;51.308;16.916;2023-06-22T14:57:39;99829.13;;;26.90;46.88
76753;BME280;65687;51.308;16.916;2023-06-22T15:02:41;99828.61;;;26.89;47.96
76753;BME280;65687;51.308;16.916;2023-06-22T15:07:43;99826.52;;;26.88;48.75
76753;BME280;65687;51.308;16.916;2023-06-22T15:12:44;99820.64;;;26.79;49.33
76753;BME280;65687;51.308;16.916;2023-06-22T15:17:46;99816.64;;;26.81;47.66
76753;BME280;65687;51.308;16.916;2023-06-22T15:22:47;99811.98;;;26.80;47.50
76753;BME280;65687;51.308;16.916;2023-06-22T15:27:49;99804.35;;;26.75;46.88
76753;BME280;65687;51.308;16.916;2023-06-22T15:32:50;99801.75;;;26.73;46.92
76753;BME280;65687;51.308;16.916;2023-06-22T15:37:52;99796.55;;;26.71;48.11
76753;BME280;65687;51.308;16.916;2023-06-22T15:42:53;99789.98;;;26.64;48.17
76753;BME280;65687;51.308;16.916;2023-06-22T15:47:56;99781.84;;;26.60;48.62
76753;BME280;65687;51.308;16.916;2023-06-22T15:52:57;99777.69;;;26.58;46.84
76753;BME280;65687;51.308;16.916;2023-06-22T15:57:58;99775.43;;;26.58;49.20
76753;BME280;65687;51.308;16.916;2023-06-22T16:03:00;99766.61;;;26.54;48.47
76753;BME280;65687;51.308;16.916;2023-06-22T16:08:02;99765.91;;;26.46;52.14
76753;BME280;65687;51.308;16.916;2023-06-22T16:13:04;99759.51;;;26.35;48.02
76753;BME280;65687;51.308;16.916;2023-06-22T16:18:05;99746.34;;;26.42;46.54
76753;BME280;65687;51.308;16.916;2023-06-22T16:23:09;99742.54;;;26.46;46.84
76753;BME280;65687;51.308;16.916;2023-06-22T16:28:10;99736.30;;;26.45;47.85
76753;BME280;65687;51.308;16.916;2023-06-22T16:33:12;99734.91;;;26.37;51.84
76753;BME280;65687;51.308;16.916;2023-06-22T16:38:13;99735.25;;;26.26;48.83
76753;BME280;65687;51.308;16.916;2023-06-22T16:43:15;99731.08;;;26.20;50.74
76753;BME280;65687;51.308;16.916;2023-06-22T16:48:17;99731.08;;;26.08;50.59
76753;BME280;65687;51.308;16.916;2023-06-22T16:53:18;99734.36;;;26.03;50.81
76753;BME280;65687;51.308;16.916;2023-06-22T16:58:23;99729.15;;;25.91;53.88
76753;BME280;65687;51.308;16.916;2023-06-22T17:03:27;99715.11;;;25.73;54.67
76753;BME280;65687;51.308;16.916;2023-06-22T17:08:30;99708.50;;;25.59;53.72
76753;BME280;65687;51.308;16.916;2023-06-22T17:13:34;99693.73;;;25.44;55.64
76753;BME280;65687;51.308;16.916;2023-06-22T17:18:36;99682.11;;;25.29;57.17
76753;BME280;65687;51.308;16.916;2023-06-22T17:23:40;99679.14;;;25.19;57.51
76753;BME280;65687;51.308;16.916;2023-06-22T17:28:58;99677.20;;;25.09;57.94
76753;BME280;65687;51.308;16.916;2023-06-22T17:34:16;99678.70;;;24.95;58.87
76753;BME280;65687;51.308;16.916;2023-06-22T17:39:22;99680.29;;;24.73;59.62
76753;BME280;65687;51.308;16.916;2023-06-22T17:44:25;99677.95;;;24.59;58.51
76753;BME280;65687;51.308;16.916;2023-06-22T17:49:29;99674.48;;;24.56;57.80
76753;BME280;65687;51.308;16.916;2023-06-22T17:54:31;99658.07;;;24.55;58.79
76753;BME280;65687;51.308;16.916;2023-06-22T17:59:32;99643.17;;;24.46;59.53
76753;BME280;65687;51.308;16.916;2023-06-22T18:04:36;99641.91;;;24.37;59.96
76753;BME280;65687;51.308;16.916;2023-06-22T18:09:39;99636.36;;;24.32;59.47
76753;BME280;65687;51.308;16.916;2023-06-22T18:14:41;99637.02;;;24.28;59.94
76753;BME280;65687;51.308;16.916;2023-06-22T18:19:43;99638.71;;;24.22;58.86
76753;BME280;65687;51.308;16.916;2023-06-22T18:24:48;99642.50;;;24.21;58.87
76753;BME280;65687;51.308;16.916;2023-06-22T18:29:50;99631.38;;;24.14;58.20
76753;BME280;65687;51.308;16.916;2023-06-22T18:34:52;99630.98;;;24.06;59.19
76753;BME280;65687;51.308;16.916;2023-06-22T18:39:54;99615.18;;;23.94;59.50
76753;BME280;65687;51.308;16.916;2023-06-22T18:44:58;99604.90;;;23.81;59.27
76753;BME280;65687;51.308;16.916;2023-06-22T18:50:07;99611.73;;;23.72;58.49
76753;BME280;65687;51.308;16.916;2023-06-22T18:55:11;99608.22;;;23.64;57.82
76753;BME280;65687;51.308;16.916;2023-06-22T19:00:14;99602.94;;;23.54;58.01
76753;BME280;65687;51.308;16.916;2023-06-22T19:05:17;99613.33;;;23.42;58.23
76753;BME280;65687;51.308;16.916;2023-06-22T19:15:29;99609.08;;;23.14;57.86
76753;BME280;65687;51.308;16.916;2023-06-22T19:20:33;99607.70;;;23.00;57.48
76753;BME280;65687;51.308;16.916;2023-06-22T19:25:36;99603.67;;;22.94;57.24
76753;BME280;65687;51.308;16.916;2023-06-22T19:30:40;99593.78;;;22.87;56.89
76753;BME280;65687;51.308;16.916;2023-06-22T19:35:42;99588.23;;;22.84;56.11
76753;BME280;65687;51.308;16.916;2023-06-22T19:40:44;99589.77;;;22.84;55.16
76753;BME280;65687;51.308;16.916;2023-06-22T19:45:46;99582.33;;;22.80;55.69
76753;BME280;65687;51.308;16.916;2023-06-22T19:50:48;99580.56;;;22.75;54.49
76753;BME280;65687;51.308;16.916;2023-06-22T19:55:50;99570.56;;;22.75;52.71
76753;BME280;65687;51.308;16.916;2023-06-22T20:00:54;99566.09;;;22.76;51.02
76753;BME280;65687;51.308;16.916;2023-06-22T20:06:15;99563.89;;;22.79;50.10
76753;BME280;65687;51.308;16.916;2023-06-22T20:11:27;99568.88;;;22.79;49.60
76753;BME280;65687;51.308;16.916;2023-06-22T20:16:30;99576.96;;;22.78;49.23
76753;BME280;65687;51.308;16.916;2023-06-22T20:21:32;99588.48;;;22.76;48.97
76753;BME280;65687;51.308;16.916;2023-06-22T20:26:44;99596.14;;;22.71;49.25
76753;BME280;65687;51.308;16.916;2023-06-22T20:31:46;99586.95;;;22.66;49.40
76753;BME280;65687;51.308;16.916;2023-06-22T20:36:47;99589.09;;;22.58;49.74
76753;BME280;65687;51.308;16.916;2023-06-22T20:41:49;99594.85;;;22.51;50.01
76753;BME280;65687;51.308;16.916;2023-06-22T20:46:50;99597.36;;;22.46;49.81
76753;BME280;65687;51.308;16.916;2023-06-22T20:51:52;99579.39;;;22.40;50.92
76753;BME280;65687;51.308;16.916;2023-06-22T20:56:54;99574.61;;;22.30;52.05
76753;BME280;65687;51.308;16.916;2023-06-22T21:01:55;99569.45;;;22.30;50.53
76753;BME280;65687;51.308;16.916;2023-06-22T21:06:57;99555.95;;;22.37;49.60
76753;BME280;65687;51.308;16.916;2023-06-22T21:11:59;99546.08;;;22.45;49.29
76753;BME280;65687;51.308;16.916;2023-06-22T21:17:00;99540.67;;;22.54;48.75
76753;BME280;65687;51.308;16.916;2023-06-22T21:22:02;99534.71;;;22.60;48.85
76753;BME280;65687;51.308;16.916;2023-06-22T21:27:04;99525.30;;;22.64;48.67
76753;BME280;65687;51.308;16.916;2023-06-22T21:32:06;99524.48;;;22.67;48.91
76753;BME280;65687;51.308;16.916;2023-06-22T21:37:07;99512.23;;;22.65;49.24
76753;BME280;65687;51.308;16.916;2023-06-22T21:42:09;99504.98;;;22.64;49.18
76753;BME280;65687;51.308;16.916;2023-06-22T21:47:10;99500.00;;;22.66;48.91
76753;BME280;65687;51.308;16.916;2023-06-22T21:52:12;99475.93;;;22.68;49.15
76753;BME280;65687;51.308;16.916;2023-06-22T21:57:14;99469.38;;;22.66;49.55
76753;BME280;65687;51.308;16.916;2023-06-22T22:02:15;99439.56;;;22.64;49.75
76753;BME280;65687;51.308;16.916;2023-06-22T22:07:17;99404.92;;;22.60;49.93
76753;BME280;65687;51.308;16.916;2023-06-22T22:12:19;99391.80;;;22.56;49.72
76753;BME280;65687;51.308;16.916;2023-06-22T22:17:21;99383.33;;;22.52;50.02
76753;BME280;65687;51.308;16.916;2023-06-22T22:22:22;99386.91;;;22.49;49.55
76753;BME280;65687;51.308;16.916;2023-06-22T22:27:24;99382.44;;;22.49;48.96
76753;BME280;65687;51.308;16.916;2023-06-22T22:32:25;99387.61;;;22.50;48.96
76753;BME280;65687;51.308;16.916;2023-06-22T22:37:27;99391.93;;;22.51;48.74
76753;BME280;65687;51.308;16.916;2023-06-22T22:42:28;99391.81;;;22.53;48.25
76753;BME280;65687;51.308;16.916;2023-06-22T22:47:30;99381.03;;;22.58;48.01
76753;BME280;65687;51.308;16.916;2023-06-22T22:52:32;99380.48;;;22.61;47.45
76753;BME280;65687;51.308;16.916;2023-06-22T22:57:35;99380.71;;;22.66;47.36
76753;BME280;65687;51.308;16.916;2023-06-22T23:02:44;99363.58;;;22.74;46.96
76753;BME280;65687;51.308;16.916;2023-06-22T23:07:45;99358.48;;;22.80;46.39
76753;BME280;65687;51.308;16.916;2023-06-22T23:12:47;99351.10;;;22.84;46.37
76753;BME280;65687;51.308;16.916;2023-06-22T23:17:49;99346.98;;;22.85;46.08
76753;BME280;65687;51.308;16.916;2023-06-22T23:22:54;99346.11;;;22.85;46.18
76753;BME280;65687;51.308;16.916;2023-06-22T23:27:59;99340.77;;;22.86;45.70
76753;BME280;65687;51.308;16.916;2023-06-22T23:33:01;99328.58;;;22.88;45.75
76753;BME280;65687;51.308;16.916;2023-06-22T23:38:02;99320.14;;;22.88;45.94
76753;BME280;65687;51.308;16.916;2023-06-22T23:43:04;99321.14;;;22.86;45.95
76753;BME280;65687;51.308;16.916;2023-06-22T23:48:07;99318.56;;;22.86;45.77
76753;BME280;65687;51.308;16.916;2023-06-22T23:53:09;99326.52;;;22.88;45.57
76753;BME280;65687;51.308;16.916;2023-06-22T23:58:11;99325.84;;;22.90;45.85
